KQRH

Camp Lemonier

Camp Lemonier, Djibouti
METAR KQRH 190756Z AUTO 06010KT 010V110 9999 CLR 33/26 A2984 RMK AO2 SLP092 WND DATA ESTMD T03290256
Observed Flight Rules
Sep-19 @ 07:56 UTC (an hour ago) Visual Flight Rules
Wind Visibility Clouds
60° at 10 knots 10,000+ meters
  • Clear skies
Temperatures Readings
Current 33°C / 91°F
Dewpoint 26°C / 79°F
Humidity 67%
Altimeter 29.84" Hg
Pressure 1009.2 hPa
METAR KQRH 190756Z AUTO 06010KT 010V110 9999 CLR 33/26 A2984 RMK AO2 SLP092 WND DATA ESTMD T03290256
Observed Flight Rules
Sep-19 @ 07:56 UTC
(an hour ago)
VFR
Wind Visibility
60° at 10 knots 10,000+ meters
Clouds
  • Clear skies
Temperature Dewpoint
33°C / 91°F 26°C / 79°F
Humidity Altimeter Pressure
67% 29.84" Hg 1009.2 hPa